sensor_id;sensor_type;location;lat;lon;timestamp;P1;durP1;ratioP1;P2;durP2;ratioP2
15643;SDS011;7921;43.586;1.408;2023-04-03T00:00:44;2.63;;;1.90;;
15643;SDS011;7921;43.586;1.408;2023-04-03T00:03:09;4.07;;;1.97;;
15643;SDS011;7921;43.586;1.408;2023-04-03T00:05:35;3.37;;;2.00;;
15643;SDS011;7921;43.586;1.408;2023-04-03T00:08:00;2.10;;;1.90;;
15643;SDS011;7921;43.586;1.408;2023-04-03T00:10:27;3.73;;;2.10;;
15643;SDS011;7921;43.586;1.408;2023-04-03T00:12:52;4.60;;;2.47;;
15643;SDS011;7921;43.586;1.408;2023-04-03T00:15:18;4.17;;;2.20;;
15643;SDS011;7921;43.586;1.408;2023-04-03T00:17:43;4.17;;;1.93;;
15643;SDS011;7921;43.586;1.408;2023-04-03T00:20:09;2.70;;;2.20;;
15643;SDS011;7921;43.586;1.408;2023-04-03T00:22:35;2.03;;;1.83;;
15643;SDS011;7921;43.586;1.408;2023-04-03T00:25:02;2.07;;;1.97;;
15643;SDS011;7921;43.586;1.408;2023-04-03T00:27:27;3.77;;;2.50;;
15643;SDS011;7921;43.586;1.408;2023-04-03T00:29:53;3.10;;;2.40;;
15643;SDS011;7921;43.586;1.408;2023-04-03T00:32:18;2.97;;;2.30;;
15643;SDS011;7921;43.586;1.408;2023-04-03T00:34:44;2.10;;;1.90;;
15643;SDS011;7921;43.586;1.408;2023-04-03T00:37:09;2.57;;;2.03;;
15643;SDS011;7921;43.586;1.408;2023-04-03T00:39:34;2.73;;;2.00;;
15643;SDS011;7921;43.586;1.408;2023-04-03T00:42:00;2.30;;;2.03;;
15643;SDS011;7921;43.586;1.408;2023-04-03T00:47:00;2.93;;;2.27;;
15643;SDS011;7921;43.586;1.408;2023-04-03T00:49:26;1.80;;;1.70;;
15643;SDS011;7921;43.586;1.408;2023-04-03T00:51:52;5.00;;;1.80;;
15643;SDS011;7921;43.586;1.408;2023-04-03T00:54:18;2.33;;;2.03;;
15643;SDS011;7921;43.586;1.408;2023-04-03T00:56:43;2.60;;;1.97;;
15643;SDS011;7921;43.586;1.408;2023-04-03T00:59:10;2.20;;;2.00;;
15643;SDS011;7921;43.586;1.408;2023-04-03T01:01:38;2.10;;;1.80;;
15643;SDS011;7921;43.586;1.408;2023-04-03T01:04:04;2.97;;;2.00;;
15643;SDS011;7921;43.586;1.408;2023-04-03T01:06:35;2.67;;;1.80;;
15643;SDS011;7921;43.586;1.408;2023-04-03T01:09:02;2.20;;;2.00;;
15643;SDS011;7921;43.586;1.408;2023-04-03T01:11:28;2.00;;;1.80;;
15643;SDS011;7921;43.586;1.408;2023-04-03T01:13:54;2.57;;;2.00;;
15643;SDS011;7921;43.586;1.408;2023-04-03T01:16:19;2.27;;;2.03;;
15643;SDS011;7921;43.586;1.408;2023-04-03T01:18:45;2.43;;;2.03;;
15643;SDS011;7921;43.586;1.408;2023-04-03T01:23:49;2.53;;;2.23;;
15643;SDS011;7921;43.586;1.408;2023-04-03T01:26:20;2.20;;;2.00;;
15643;SDS011;7921;43.586;1.408;2023-04-03T01:28:46;1.90;;;1.80;;
15643;SDS011;7921;43.586;1.408;2023-04-03T01:31:28;3.00;;;2.00;;
15643;SDS011;7921;43.586;1.408;2023-04-03T01:34:10;2.17;;;1.83;;
15643;SDS011;7921;43.586;1.408;2023-04-03T01:36:36;2.37;;;1.90;;
15643;SDS011;7921;43.586;1.408;2023-04-03T01:39:01;2.60;;;1.90;;
15643;SDS011;7921;43.586;1.408;2023-04-03T01:41:27;3.10;;;2.00;;
15643;SDS011;7921;43.586;1.408;2023-04-03T01:43:53;2.37;;;2.17;;
15643;SDS011;7921;43.586;1.408;2023-04-03T01:46:18;2.50;;;2.13;;
15643;SDS011;7921;43.586;1.408;2023-04-03T01:48:45;2.17;;;1.97;;
15643;SDS011;7921;43.586;1.408;2023-04-03T01:51:11;3.67;;;2.50;;
15643;SDS011;7921;43.586;1.408;2023-04-03T01:53:36;3.20;;;2.00;;
15643;SDS011;7921;43.586;1.408;2023-04-03T01:56:02;2.63;;;2.00;;
15643;SDS011;7921;43.586;1.408;2023-04-03T01:58:27;2.00;;;1.90;;
15643;SDS011;7921;43.586;1.408;2023-04-03T02:00:53;2.43;;;2.00;;
15643;SDS011;7921;43.586;1.408;2023-04-03T02:03:19;2.13;;;1.93;;
15643;SDS011;7921;43.586;1.408;2023-04-03T02:05:45;2.87;;;2.20;;
15643;SDS011;7921;43.586;1.408;2023-04-03T02:08:10;2.10;;;1.70;;
15643;SDS011;7921;43.586;1.408;2023-04-03T02:10:36;2.30;;;2.10;;
15643;SDS011;7921;43.586;1.408;2023-04-03T02:13:01;2.23;;;1.90;;
15643;SDS011;7921;43.586;1.408;2023-04-03T02:15:27;2.03;;;1.93;;
15643;SDS011;7921;43.586;1.408;2023-04-03T02:17:52;2.83;;;2.13;;
15643;SDS011;7921;43.586;1.408;2023-04-03T02:20:18;2.17;;;1.87;;
15643;SDS011;7921;43.586;1.408;2023-04-03T02:22:44;2.17;;;2.07;;
15643;SDS011;7921;43.586;1.408;2023-04-03T02:25:09;3.30;;;2.30;;
15643;SDS011;7921;43.586;1.408;2023-04-03T02:27:38;2.50;;;2.00;;
15643;SDS011;7921;43.586;1.408;2023-04-03T02:30:04;4.10;;;1.90;;
15643;SDS011;7921;43.586;1.408;2023-04-03T02:32:30;2.43;;;1.70;;
15643;SDS011;7921;43.586;1.408;2023-04-03T02:34:56;3.20;;;2.17;;
15643;SDS011;7921;43.586;1.408;2023-04-03T02:37:21;2.63;;;1.67;;
15643;SDS011;7921;43.586;1.408;2023-04-03T02:39:46;4.43;;;1.93;;
15643;SDS011;7921;43.586;1.408;2023-04-03T02:42:12;3.10;;;2.00;;
15643;SDS011;7921;43.586;1.408;2023-04-03T02:44:37;2.23;;;2.03;;
15643;SDS011;7921;43.586;1.408;2023-04-03T02:47:03;2.57;;;2.20;;
15643;SDS011;7921;43.586;1.408;2023-04-03T02:49:29;3.50;;;2.30;;
15643;SDS011;7921;43.586;1.408;2023-04-03T02:51:55;2.80;;;2.33;;
15643;SDS011;7921;43.586;1.408;2023-04-03T02:54:20;2.27;;;2.10;;
15643;SDS011;7921;43.586;1.408;2023-04-03T02:56:47;2.40;;;2.13;;
15643;SDS011;7921;43.586;1.408;2023-04-03T02:59:12;2.97;;;2.30;;
15643;SDS011;7921;43.586;1.408;2023-04-03T03:01:37;3.20;;;2.60;;
15643;SDS011;7921;43.586;1.408;2023-04-03T03:04:03;2.40;;;2.20;;
15643;SDS011;7921;43.586;1.408;2023-04-03T03:06:28;2.10;;;2.00;;
15643;SDS011;7921;43.586;1.408;2023-04-03T03:08:54;2.87;;;2.43;;
15643;SDS011;7921;43.586;1.408;2023-04-03T03:11:19;2.80;;;2.60;;
15643;SDS011;7921;43.586;1.408;2023-04-03T03:13:44;2.40;;;2.20;;
15643;SDS011;7921;43.586;1.408;2023-04-03T03:16:10;2.53;;;2.20;;
15643;SDS011;7921;43.586;1.408;2023-04-03T03:18:35;3.97;;;2.10;;
15643;SDS011;7921;43.586;1.408;2023-04-03T03:21:01;2.23;;;2.03;;
15643;SDS011;7921;43.586;1.408;2023-04-03T03:23:28;2.80;;;2.30;;
15643;SDS011;7921;43.586;1.408;2023-04-03T03:25:56;2.00;;;1.87;;
15643;SDS011;7921;43.586;1.408;2023-04-03T03:28:22;2.50;;;2.30;;
15643;SDS011;7921;43.586;1.408;2023-04-03T03:30:47;3.00;;;2.03;;
15643;SDS011;7921;43.586;1.408;2023-04-03T03:33:13;2.40;;;2.20;;
15643;SDS011;7921;43.586;1.408;2023-04-03T03:35:38;2.70;;;2.30;;
15643;SDS011;7921;43.586;1.408;2023-04-03T03:38:03;2.30;;;2.10;;
15643;SDS011;7921;43.586;1.408;2023-04-03T03:40:29;2.30;;;2.10;;
15643;SDS011;7921;43.586;1.408;2023-04-03T03:42:54;2.00;;;1.90;;
15643;SDS011;7921;43.586;1.408;2023-04-03T03:45:20;3.87;;;2.10;;
15643;SDS011;7921;43.586;1.408;2023-04-03T03:47:45;2.40;;;2.20;;
15643;SDS011;7921;43.586;1.408;2023-04-03T03:50:11;2.70;;;2.00;;
15643;SDS011;7921;43.586;1.408;2023-04-03T03:52:36;3.37;;;2.20;;
15643;SDS011;7921;43.586;1.408;2023-04-03T03:55:02;2.53;;;2.30;;
15643;SDS011;7921;43.586;1.408;2023-04-03T03:57:27;2.37;;;2.13;;
15643;SDS011;7921;43.586;1.408;2023-04-03T03:59:53;2.40;;;2.20;;
15643;SDS011;7921;43.586;1.408;2023-04-03T04:02:19;2.30;;;2.10;;
15643;SDS011;7921;43.586;1.408;2023-04-03T04:04:45;2.60;;;2.40;;
15643;SDS011;7921;43.586;1.408;2023-04-03T04:07:11;2.10;;;1.97;;
15643;SDS011;7921;43.586;1.408;2023-04-03T04:09:36;3.03;;;2.50;;
15643;SDS011;7921;43.586;1.408;2023-04-03T04:12:01;2.43;;;2.23;;
15643;SDS011;7921;43.586;1.408;2023-04-03T04:14:27;2.93;;;2.47;;
15643;SDS011;7921;43.586;1.408;2023-04-03T04:16:52;2.40;;;2.20;;
15643;SDS011;7921;43.586;1.408;2023-04-03T04:19:17;2.70;;;2.17;;
15643;SDS011;7921;43.586;1.408;2023-04-03T04:21:43;2.43;;;2.20;;
15643;SDS011;7921;43.586;1.408;2023-04-03T04:24:08;2.57;;;2.37;;
15643;SDS011;7921;43.586;1.408;2023-04-03T04:26:34;2.67;;;2.47;;
15643;SDS011;7921;43.586;1.408;2023-04-03T04:29:00;3.80;;;2.47;;
15643;SDS011;7921;43.586;1.408;2023-04-03T04:31:25;2.77;;;2.57;;
15643;SDS011;7921;43.586;1.408;2023-04-03T04:33:51;2.50;;;2.30;;
15643;SDS011;7921;43.586;1.408;2023-04-03T04:36:17;3.00;;;2.60;;
15643;SDS011;7921;43.586;1.408;2023-04-03T04:38:43;2.60;;;2.40;;
15643;SDS011;7921;43.586;1.408;2023-04-03T04:41:08;2.37;;;2.23;;
15643;SDS011;7921;43.586;1.408;2023-04-03T04:43:34;2.67;;;2.47;;
15643;SDS011;7921;43.586;1.408;2023-04-03T04:48:32;2.60;;;2.40;;
15643;SDS011;7921;43.586;1.408;2023-04-03T04:50:58;2.60;;;2.40;;
15643;SDS011;7921;43.586;1.408;2023-04-03T04:53:24;2.57;;;2.37;;
15643;SDS011;7921;43.586;1.408;2023-04-03T04:55:49;2.60;;;2.40;;
15643;SDS011;7921;43.586;1.408;2023-04-03T04:58:15;3.83;;;2.30;;
15643;SDS011;7921;43.586;1.408;2023-04-03T05:00:40;2.90;;;2.70;;
15643;SDS011;7921;43.586;1.408;2023-04-03T05:03:05;4.03;;;2.47;;
15643;SDS011;7921;43.586;1.408;2023-04-03T05:05:31;2.70;;;2.50;;
15643;SDS011;7921;43.586;1.408;2023-04-03T05:07:57;2.60;;;2.40;;
15643;SDS011;7921;43.586;1.408;2023-04-03T05:10:22;2.70;;;2.50;;
15643;SDS011;7921;43.586;1.408;2023-04-03T05:12:48;2.40;;;2.20;;
15643;SDS011;7921;43.586;1.408;2023-04-03T05:15:13;2.80;;;2.60;;
15643;SDS011;7921;43.586;1.408;2023-04-03T05:17:39;2.57;;;2.37;;
15643;SDS011;7921;43.586;1.408;2023-04-03T05:20:04;3.03;;;2.83;;
15643;SDS011;7921;43.586;1.408;2023-04-03T05:22:30;3.03;;;2.83;;
15643;SDS011;7921;43.586;1.408;2023-04-03T05:24:56;3.03;;;2.73;;
15643;SDS011;7921;43.586;1.408;2023-04-03T05:27:22;2.87;;;2.67;;
15643;SDS011;7921;43.586;1.408;2023-04-03T05:29:49;2.60;;;2.40;;
15643;SDS011;7921;43.586;1.408;2023-04-03T05:32:14;3.00;;;2.60;;
15643;SDS011;7921;43.586;1.408;2023-04-03T05:34:40;2.77;;;2.50;;
15643;SDS011;7921;43.586;1.408;2023-04-03T05:37:05;2.73;;;2.50;;
15643;SDS011;7921;43.586;1.408;2023-04-03T05:39:31;2.97;;;2.73;;
15643;SDS011;7921;43.586;1.408;2023-04-03T05:41:56;2.80;;;2.60;;
15643;SDS011;7921;43.586;1.408;2023-04-03T05:44:22;2.60;;;2.40;;
15643;SDS011;7921;43.586;1.408;2023-04-03T05:46:47;2.77;;;2.57;;
15643;SDS011;7921;43.586;1.408;2023-04-03T05:49:13;3.10;;;2.80;;
15643;SDS011;7921;43.586;1.408;2023-04-03T05:51:38;3.40;;;2.50;;
15643;SDS011;7921;43.586;1.408;2023-04-03T05:54:16;3.53;;;2.90;;
15643;SDS011;7921;43.586;1.408;2023-04-03T05:56:44;2.90;;;2.70;;
15643;SDS011;7921;43.586;1.408;2023-04-03T05:59:09;2.50;;;2.33;;
15643;SDS011;7921;43.586;1.408;2023-04-03T06:01:35;2.80;;;2.60;;
15643;SDS011;7921;43.586;1.408;2023-04-03T06:04:00;3.00;;;2.70;;
15643;SDS011;7921;43.586;1.408;2023-04-03T06:06:26;3.07;;;2.80;;
15643;SDS011;7921;43.586;1.408;2023-04-03T06:09:08;3.00;;;2.80;;
15643;SDS011;7921;43.586;1.408;2023-04-03T06:11:34;2.80;;;2.50;;
15643;SDS011;7921;43.586;1.408;2023-04-03T06:14:00;3.00;;;2.70;;
15643;SDS011;7921;43.586;1.408;2023-04-03T06:16:25;2.60;;;2.40;;
15643;SDS011;7921;43.586;1.408;2023-04-03T06:18:51;2.57;;;2.37;;
15643;SDS011;7921;43.586;1.408;2023-04-03T06:21:16;2.57;;;2.37;;
15643;SDS011;7921;43.586;1.408;2023-04-03T06:23:41;3.07;;;2.77;;
15643;SDS011;7921;43.586;1.408;2023-04-03T06:26:07;2.90;;;2.50;;
15643;SDS011;7921;43.586;1.408;2023-04-03T06:28:33;2.43;;;2.27;;
15643;SDS011;7921;43.586;1.408;2023-04-03T06:30:58;3.10;;;2.80;;
15643;SDS011;7921;43.586;1.408;2023-04-03T06:33:23;2.63;;;2.43;;
15643;SDS011;7921;43.586;1.408;2023-04-03T06:35:49;2.97;;;2.67;;
15643;SDS011;7921;43.586;1.408;2023-04-03T06:38:14;2.77;;;2.57;;
15643;SDS011;7921;43.586;1.408;2023-04-03T06:40:40;2.83;;;2.60;;
15643;SDS011;7921;43.586;1.408;2023-04-03T06:43:05;2.80;;;2.60;;
15643;SDS011;7921;43.586;1.408;2023-04-03T06:45:31;2.77;;;2.57;;
15643;SDS011;7921;43.586;1.408;2023-04-03T06:47:56;3.73;;;2.30;;
15643;SDS011;7921;43.586;1.408;2023-04-03T06:50:21;2.87;;;2.50;;
15643;SDS011;7921;43.586;1.408;2023-04-03T06:52:47;3.77;;;2.60;;
15643;SDS011;7921;43.586;1.408;2023-04-03T06:55:12;2.90;;;2.70;;
15643;SDS011;7921;43.586;1.408;2023-04-03T06:57:38;2.80;;;2.60;;
15643;SDS011;7921;43.586;1.408;2023-04-03T07:00:04;3.00;;;2.33;;
15643;SDS011;7921;43.586;1.408;2023-04-03T07:02:30;2.47;;;2.33;;
15643;SDS011;7921;43.586;1.408;2023-04-03T07:04:56;2.90;;;2.60;;
15643;SDS011;7921;43.586;1.408;2023-04-03T07:07:22;3.70;;;2.50;;
15643;SDS011;7921;43.586;1.408;2023-04-03T07:09:47;2.60;;;2.33;;
15643;SDS011;7921;43.586;1.408;2023-04-03T07:12:13;2.83;;;2.63;;
15643;SDS011;7921;43.586;1.408;2023-04-03T07:14:39;3.70;;;2.53;;
15643;SDS011;7921;43.586;1.408;2023-04-03T07:17:04;2.93;;;2.70;;
15643;SDS011;7921;43.586;1.408;2023-04-03T07:19:30;3.30;;;3.00;;
15643;SDS011;7921;43.586;1.408;2023-04-03T07:21:56;2.90;;;2.60;;
15643;SDS011;7921;43.586;1.408;2023-04-03T07:24:21;3.00;;;2.70;;
15643;SDS011;7921;43.586;1.408;2023-04-03T07:26:50;3.77;;;2.73;;
15643;SDS011;7921;43.586;1.408;2023-04-03T07:29:17;2.90;;;2.67;;
15643;SDS011;7921;43.586;1.408;2023-04-03T07:31:43;3.10;;;2.20;;
15643;SDS011;7921;43.586;1.408;2023-04-03T07:34:09;2.33;;;2.23;;
15643;SDS011;7921;43.586;1.408;2023-04-03T07:36:35;2.60;;;2.40;;
15643;SDS011;7921;43.586;1.408;2023-04-03T07:39:01;2.67;;;2.47;;
15643;SDS011;7921;43.586;1.408;2023-04-03T07:41:26;2.77;;;2.47;;
15643;SDS011;7921;43.586;1.408;2023-04-03T07:43:53;2.57;;;2.37;;
15643;SDS011;7921;43.586;1.408;2023-04-03T07:46:19;2.23;;;2.13;;
15643;SDS011;7921;43.586;1.408;2023-04-03T07:48:45;3.33;;;2.90;;
15643;SDS011;7921;43.586;1.408;2023-04-03T07:51:11;4.40;;;2.57;;
15643;SDS011;7921;43.586;1.408;2023-04-03T07:53:37;4.00;;;2.43;;
15643;SDS011;7921;43.586;1.408;2023-04-03T07:56:03;4.33;;;2.80;;
15643;SDS011;7921;43.586;1.408;2023-04-03T07:58:29;3.73;;;2.40;;
15643;SDS011;7921;43.586;1.408;2023-04-03T08:00:54;2.77;;;2.27;;
15643;SDS011;7921;43.586;1.408;2023-04-03T08:03:20;2.57;;;2.40;;
15643;SDS011;7921;43.586;1.408;2023-04-03T08:05:46;4.10;;;2.37;;
15643;SDS011;7921;43.586;1.408;2023-04-03T08:08:14;2.53;;;2.30;;
15643;SDS011;7921;43.586;1.408;2023-04-03T08:10:41;2.70;;;2.50;;
15643;SDS011;7921;43.586;1.408;2023-04-03T08:13:08;2.83;;;2.53;;
15643;SDS011;7921;43.586;1.408;2023-04-03T08:15:33;2.20;;;2.10;;
15643;SDS011;7921;43.586;1.408;2023-04-03T08:17:59;4.13;;;2.23;;
15643;SDS011;7921;43.586;1.408;2023-04-03T08:20:25;3.90;;;2.17;;
15643;SDS011;7921;43.586;1.408;2023-04-03T08:22:51;3.47;;;2.27;;
15643;SDS011;7921;43.586;1.408;2023-04-03T08:25:17;2.90;;;2.10;;
15643;SDS011;7921;43.586;1.408;2023-04-03T08:27:43;2.47;;;2.27;;
15643;SDS011;7921;43.586;1.408;2023-04-03T08:30:08;3.27;;;2.43;;
15643;SDS011;7921;43.586;1.408;2023-04-03T08:32:34;2.30;;;2.10;;
15643;SDS011;7921;43.586;1.408;2023-04-03T08:35:01;4.50;;;2.40;;
15643;SDS011;7921;43.586;1.408;2023-04-03T08:37:26;3.17;;;2.20;;
15643;SDS011;7921;43.586;1.408;2023-04-03T08:39:52;2.57;;;2.00;;
15643;SDS011;7921;43.586;1.408;2023-04-03T08:45:17;2.33;;;2.20;;
15643;SDS011;7921;43.586;1.408;2023-04-03T08:48:00;2.10;;;2.00;;
15643;SDS011;7921;43.586;1.408;2023-04-03T08:50:39;2.50;;;2.30;;
15643;SDS011;7921;43.586;1.408;2023-04-03T08:53:12;2.30;;;2.10;;
15643;SDS011;7921;43.586;1.408;2023-04-03T08:55:44;2.37;;;2.07;;
15643;SDS011;7921;43.586;1.408;2023-04-03T09:01:00;2.53;;;2.33;;
15643;SDS011;7921;43.586;1.408;2023-04-03T09:03:32;2.77;;;2.50;;
15643;SDS011;7921;43.586;1.408;2023-04-03T09:08:37;3.83;;;2.30;;
15643;SDS011;7921;43.586;1.408;2023-04-03T09:11:22;2.83;;;1.97;;
15643;SDS011;7921;43.586;1.408;2023-04-03T09:18:56;2.80;;;2.07;;
15643;SDS011;7921;43.586;1.408;2023-04-03T09:21:34;1.57;;;1.47;;
15643;SDS011;7921;43.586;1.408;2023-04-03T09:24:04;2.30;;;1.70;;
15643;SDS011;7921;43.586;1.408;2023-04-03T09:29:20;3.73;;;1.90;;
15643;SDS011;7921;43.586;1.408;2023-04-03T09:31:48;1.50;;;1.40;;
15643;SDS011;7921;43.586;1.408;2023-04-03T09:34:20;1.80;;;1.70;;
15643;SDS011;7921;43.586;1.408;2023-04-03T09:36:48;2.23;;;1.27;;
15643;SDS011;7921;43.586;1.408;2023-04-03T09:39:24;2.30;;;1.50;;
15643;SDS011;7921;43.586;1.408;2023-04-03T09:44:35;1.80;;;1.63;;
15643;SDS011;7921;43.586;1.408;2023-04-03T09:49:49;2.23;;;1.60;;
15643;SDS011;7921;43.586;1.408;2023-04-03T09:52:18;1.63;;;1.50;;
15643;SDS011;7921;43.586;1.408;2023-04-03T09:54:51;1.53;;;1.43;;
15643;SDS011;7921;43.586;1.408;2023-04-03T09:57:16;1.90;;;1.40;;
15643;SDS011;7921;43.586;1.408;2023-04-03T09:59:58;1.83;;;1.40;;
15643;SDS011;7921;43.586;1.408;2023-04-03T10:04:59;2.90;;;1.40;;
15643;SDS011;7921;43.586;1.408;2023-04-03T10:07:29;1.77;;;1.30;;
15643;SDS011;7921;43.586;1.408;2023-04-03T10:10:16;3.13;;;1.57;;
15643;SDS011;7921;43.586;1.408;2023-04-03T10:12:45;1.77;;;1.30;;
15643;SDS011;7921;43.586;1.408;2023-04-03T10:15:14;1.47;;;1.17;;
15643;SDS011;7921;43.586;1.408;2023-04-03T10:18:02;1.70;;;1.60;;
15643;SDS011;7921;43.586;1.408;2023-04-03T10:26:23;1.63;;;1.53;;
15643;SDS011;7921;43.586;1.408;2023-04-03T10:29:01;1.57;;;1.47;;
15643;SDS011;7921;43.586;1.408;2023-04-03T10:42:43;3.27;;;1.40;;
15643;SDS011;7921;43.586;1.408;2023-04-03T10:53:01;1.83;;;1.53;;
15643;SDS011;7921;43.586;1.408;2023-04-03T10:57:59;2.00;;;1.80;;
15643;SDS011;7921;43.586;1.408;2023-04-03T11:00:29;1.23;;;1.10;;
15643;SDS011;7921;43.586;1.408;2023-04-03T11:03:00;1.90;;;1.33;;
15643;SDS011;7921;43.586;1.408;2023-04-03T11:10:42;1.87;;;1.40;;
15643;SDS011;7921;43.586;1.408;2023-04-03T11:13:17;1.77;;;1.40;;
15643;SDS011;7921;43.586;1.408;2023-04-03T11:15:56;1.60;;;1.30;;
15643;SDS011;7921;43.586;1.408;2023-04-03T11:21:05;1.33;;;1.07;;
15643;SDS011;7921;43.586;1.408;2023-04-03T11:23:36;1.50;;;1.33;;
15643;SDS011;7921;43.586;1.408;2023-04-03T11:26:07;2.93;;;1.50;;
15643;SDS011;7921;43.586;1.408;2023-04-03T11:28:37;3.63;;;1.80;;
15643;SDS011;7921;43.586;1.408;2023-04-03T11:34:20;2.00;;;1.90;;
15643;SDS011;7921;43.586;1.408;2023-04-03T11:37:01;2.40;;;1.73;;
15643;SDS011;7921;43.586;1.408;2023-04-03T11:39:37;1.80;;;1.50;;
15643;SDS011;7921;43.586;1.408;2023-04-03T11:42:13;1.50;;;1.40;;
15643;SDS011;7921;43.586;1.408;2023-04-03T11:44:40;2.80;;;1.80;;
15643;SDS011;7921;43.586;1.408;2023-04-03T11:47:07;2.70;;;1.77;;
15643;SDS011;7921;43.586;1.408;2023-04-03T11:52:56;1.93;;;1.53;;
15643;SDS011;7921;43.586;1.408;2023-04-03T12:05:50;2.17;;;1.50;;
15643;SDS011;7921;43.586;1.408;2023-04-03T12:13:38;3.93;;;2.40;;
15643;SDS011;7921;43.586;1.408;2023-04-03T12:16:05;2.97;;;1.90;;
15643;SDS011;7921;43.586;1.408;2023-04-03T12:18:55;2.10;;;1.90;;
15643;SDS011;7921;43.586;1.408;2023-04-03T12:26:30;1.93;;;1.30;;
15643;SDS011;7921;43.586;1.408;2023-04-03T12:28:56;2.30;;;1.77;;
15643;SDS011;7921;43.586;1.408;2023-04-03T12:31:22;3.27;;;1.70;;
15643;SDS011;7921;43.586;1.408;2023-04-03T12:33:56;2.30;;;1.53;;
15643;SDS011;7921;43.586;1.408;2023-04-03T12:36:30;2.43;;;1.30;;
15643;SDS011;7921;43.586;1.408;2023-04-03T12:41:34;2.67;;;1.83;;
15643;SDS011;7921;43.586;1.408;2023-04-03T12:46:49;2.10;;;1.90;;
15643;SDS011;7921;43.586;1.408;2023-04-03T12:49:22;4.40;;;2.90;;
15643;SDS011;7921;43.586;1.408;2023-04-03T12:51:55;3.20;;;1.97;;
15643;SDS011;7921;43.586;1.408;2023-04-03T12:54:54;4.23;;;1.93;;
15643;SDS011;7921;43.586;1.408;2023-04-03T12:57:24;1.70;;;1.50;;
15643;SDS011;7921;43.586;1.408;2023-04-03T12:59:51;2.27;;;1.47;;
15643;SDS011;7921;43.586;1.408;2023-04-03T13:02:20;2.43;;;1.50;;
15643;SDS011;7921;43.586;1.408;2023-04-03T13:04:54;2.63;;;1.60;;
15643;SDS011;7921;43.586;1.408;2023-04-03T13:07:30;0.87;;;0.80;;
15643;SDS011;7921;43.586;1.408;2023-04-03T13:10:03;2.00;;;1.23;;
15643;SDS011;7921;43.586;1.408;2023-04-03T13:12:32;1.40;;;1.00;;
15643;SDS011;7921;43.586;1.408;2023-04-03T13:15:00;1.43;;;1.03;;
15643;SDS011;7921;43.586;1.408;2023-04-03T13:17:29;1.23;;;1.00;;
15643;SDS011;7921;43.586;1.408;2023-04-03T13:19:56;2.10;;;1.40;;
15643;SDS011;7921;43.586;1.408;2023-04-03T13:22:50;1.40;;;0.93;;
15643;SDS011;7921;43.586;1.408;2023-04-03T13:25:22;1.27;;;0.90;;
15643;SDS011;7921;43.586;1.408;2023-04-03T13:27:49;1.67;;;1.30;;
15643;SDS011;7921;43.586;1.408;2023-04-03T13:30:21;3.07;;;2.60;;
15643;SDS011;7921;43.586;1.408;2023-04-03T13:32:50;2.47;;;1.57;;
15643;SDS011;7921;43.586;1.408;2023-04-03T13:35:30;1.77;;;1.10;;
15643;SDS011;7921;43.586;1.408;2023-04-03T13:37:58;1.20;;;1.10;;
15643;SDS011;7921;43.586;1.408;2023-04-03T13:40:26;1.50;;;0.97;;
15643;SDS011;7921;43.586;1.408;2023-04-03T13:43:25;1.77;;;1.00;;
15643;SDS011;7921;43.586;1.408;2023-04-03T13:48:45;2.63;;;1.00;;
15643;SDS011;7921;43.586;1.408;2023-04-03T13:53:51;1.33;;;1.23;;
15643;SDS011;7921;43.586;1.408;2023-04-03T13:56:32;2.70;;;1.40;;
15643;SDS011;7921;43.586;1.408;2023-04-03T14:04:17;1.40;;;1.00;;
15643;SDS011;7921;43.586;1.408;2023-04-03T14:06:44;2.43;;;1.53;;
15643;SDS011;7921;43.586;1.408;2023-04-03T14:09:10;1.77;;;1.60;;
15643;SDS011;7921;43.586;1.408;2023-04-03T14:11:35;2.17;;;1.30;;
15643;SDS011;7921;43.586;1.408;2023-04-03T14:14:02;2.10;;;1.60;;
15643;SDS011;7921;43.586;1.408;2023-04-03T14:16:32;3.77;;;1.80;;
15643;SDS011;7921;43.586;1.408;2023-04-03T14:18:58;2.37;;;1.60;;
15643;SDS011;7921;43.586;1.408;2023-04-03T14:21:23;3.87;;;1.47;;
15643;SDS011;7921;43.586;1.408;2023-04-03T14:23:49;2.00;;;1.57;;
15643;SDS011;7921;43.586;1.408;2023-04-03T14:26:19;2.93;;;2.17;;
15643;SDS011;7921;43.586;1.408;2023-04-03T14:28:47;4.10;;;2.50;;
15643;SDS011;7921;43.586;1.408;2023-04-03T14:31:14;2.67;;;1.77;;
15643;SDS011;7921;43.586;1.408;2023-04-03T14:33:41;1.70;;;1.50;;
15643;SDS011;7921;43.586;1.408;2023-04-03T14:36:13;3.60;;;1.33;;
15643;SDS011;7921;43.586;1.408;2023-04-03T14:38:40;3.27;;;1.93;;
15643;SDS011;7921;43.586;1.408;2023-04-03T14:41:06;4.60;;;2.33;;
15643;SDS011;7921;43.586;1.408;2023-04-03T14:43:32;2.90;;;2.40;;
15643;SDS011;7921;43.586;1.408;2023-04-03T14:45:57;3.63;;;3.00;;
15643;SDS011;7921;43.586;1.408;2023-04-03T14:48:24;4.50;;;3.57;;
15643;SDS011;7921;43.586;1.408;2023-04-03T14:50:51;3.80;;;2.77;;
15643;SDS011;7921;43.586;1.408;2023-04-03T14:53:17;4.93;;;2.43;;
15643;SDS011;7921;43.586;1.408;2023-04-03T14:55:47;3.77;;;2.77;;
15643;SDS011;7921;43.586;1.408;2023-04-03T14:58:14;2.80;;;1.60;;
15643;SDS011;7921;43.586;1.408;2023-04-03T15:00:41;5.93;;;3.70;;
15643;SDS011;7921;43.586;1.408;2023-04-03T15:03:10;5.50;;;3.30;;
15643;SDS011;7921;43.586;1.408;2023-04-03T15:05:47;5.30;;;2.40;;
15643;SDS011;7921;43.586;1.408;2023-04-03T15:08:19;3.10;;;2.37;;
15643;SDS011;7921;43.586;1.408;2023-04-03T15:10:46;3.30;;;2.43;;
15643;SDS011;7921;43.586;1.408;2023-04-03T15:13:12;3.17;;;2.13;;
15643;SDS011;7921;43.586;1.408;2023-04-03T15:15:38;4.10;;;1.90;;
15643;SDS011;7921;43.586;1.408;2023-04-03T15:18:03;2.47;;;1.63;;
15643;SDS011;7921;43.586;1.408;2023-04-03T15:20:29;1.40;;;1.30;;
15643;SDS011;7921;43.586;1.408;2023-04-03T15:22:56;2.17;;;1.47;;
15643;SDS011;7921;43.586;1.408;2023-04-03T15:25:22;1.30;;;1.20;;
15643;SDS011;7921;43.586;1.408;2023-04-03T15:27:47;4.20;;;1.27;;
15643;SDS011;7921;43.586;1.408;2023-04-03T15:30:14;3.00;;;1.20;;
15643;SDS011;7921;43.586;1.408;2023-04-03T15:32:41;1.80;;;1.13;;
15643;SDS011;7921;43.586;1.408;2023-04-03T15:35:06;1.77;;;1.03;;
15643;SDS011;7921;43.586;1.408;2023-04-03T15:37:32;1.67;;;1.30;;
15643;SDS011;7921;43.586;1.408;2023-04-03T15:39:58;1.10;;;1.00;;
15643;SDS011;7921;43.586;1.408;2023-04-03T15:42:24;3.37;;;1.30;;
15643;SDS011;7921;43.586;1.408;2023-04-03T15:44:49;1.97;;;1.20;;
15643;SDS011;7921;43.586;1.408;2023-04-03T15:47:15;1.73;;;1.30;;
15643;SDS011;7921;43.586;1.408;2023-04-03T15:49:40;1.93;;;1.40;;
15643;SDS011;7921;43.586;1.408;2023-04-03T15:52:06;2.43;;;1.60;;
15643;SDS011;7921;43.586;1.408;2023-04-03T15:54:31;2.07;;;1.60;;
15643;SDS011;7921;43.586;1.408;2023-04-03T15:56:57;2.13;;;1.93;;
15643;SDS011;7921;43.586;1.408;2023-04-03T15:59:22;2.30;;;1.50;;
15643;SDS011;7921;43.586;1.408;2023-04-03T16:01:48;1.90;;;1.20;;
15643;SDS011;7921;43.586;1.408;2023-04-03T16:04:15;1.17;;;1.03;;
15643;SDS011;7921;43.586;1.408;2023-04-03T16:06:41;1.90;;;1.50;;
15643;SDS011;7921;43.586;1.408;2023-04-03T16:09:06;2.30;;;1.10;;
15643;SDS011;7921;43.586;1.408;2023-04-03T16:11:32;2.10;;;1.30;;
15643;SDS011;7921;43.586;1.408;2023-04-03T16:14:00;1.80;;;1.30;;
15643;SDS011;7921;43.586;1.408;2023-04-03T16:16:26;1.23;;;1.07;;
15643;SDS011;7921;43.586;1.408;2023-04-03T16:18:52;2.07;;;1.63;;
15643;SDS011;7921;43.586;1.408;2023-04-03T16:21:19;1.67;;;1.23;;
15643;SDS011;7921;43.586;1.408;2023-04-03T16:23:44;2.13;;;1.33;;
15643;SDS011;7921;43.586;1.408;2023-04-03T16:26:09;2.57;;;0.93;;
15643;SDS011;7921;43.586;1.408;2023-04-03T16:28:35;2.30;;;1.30;;
15643;SDS011;7921;43.586;1.408;2023-04-03T16:31:01;1.70;;;1.10;;
15643;SDS011;7921;43.586;1.408;2023-04-03T16:33:26;1.87;;;1.20;;
15643;SDS011;7921;43.586;1.408;2023-04-03T16:35:52;1.13;;;1.03;;
15643;SDS011;7921;43.586;1.408;2023-04-03T16:38:18;1.23;;;1.13;;
15643;SDS011;7921;43.586;1.408;2023-04-03T16:40:47;1.77;;;1.07;;
15643;SDS011;7921;43.586;1.408;2023-04-03T16:43:13;1.30;;;1.07;;
15643;SDS011;7921;43.586;1.408;2023-04-03T16:45:39;2.23;;;1.13;;
15643;SDS011;7921;43.586;1.408;2023-04-03T16:48:05;1.20;;;1.10;;
15643;SDS011;7921;43.586;1.408;2023-04-03T16:50:30;1.40;;;1.10;;
15643;SDS011;7921;43.586;1.408;2023-04-03T16:52:56;1.80;;;1.30;;